Time;durP1;ratioP1;P1;durP2;ratioP2;P2;SDS_P1;SDS_P2;PMS_P1;PMS_P2;Temp;Humidity;BMP_temperature;BMP_pressure;BME280_temperature;BME280_humidity;BME280_pressure;Samples;Min_cycle;Max_cycle;Signal;HPM_P1;HPM_P2
2021/07/17 00:01:32;;;;;;;11.10;9.90;;;;;;;24.52;63.51;100218.66;4896895;28;98377;-85
2021/07/17 00:03:58;;;;;;;17.55;10.13;;;;;;;24.54;63.33;100222.91;4895990;28;98433;-84
2021/07/17 00:06:23;;;;;;;14.25;9.45;;;;;;;24.59;63.33;100226.00;4896219;28;96665;-84
2021/07/17 00:08:50;;;;;;;14.88;10.20;;;;;;;24.48;63.50;100228.00;4895570;28;96886;-84
2021/07/17 00:11:17;;;;;;;15.40;10.05;;;;;;;24.42;64.02;100217.81;4896338;28;101858;-85
2021/07/17 00:13:42;;;;;;;16.17;10.75;;;;;;;24.33;63.98;100214.16;4896449;28;99664;-85
2021/07/17 00:16:08;;;;;;;14.98;9.82;;;;;;;24.42;63.95;100212.44;4896201;28;96578;-84
2021/07/17 00:18:34;;;;;;;14.95;10.63;;;;;;;24.34;64.06;100219.38;4896227;28;96948;-83
2021/07/17 00:20:59;;;;;;;16.08;10.55;;;;;;;24.22;64.25;100211.63;4895253;28;100358;-84
2021/07/17 00:23:25;;;;;;;10.57;9.25;;;;;;;24.23;64.15;100205.25;4896510;28;100792;-85
2021/07/17 00:25:53;;;;;;;16.52;9.85;;;;;;;24.30;64.01;100206.41;4895851;28;96521;-85
2021/07/17 00:28:19;;;;;;;13.68;9.98;;;;;;;24.11;64.42;100213.47;4912725;28;96637;-84
2021/07/17 00:30:46;;;;;;;13.68;9.70;;;;;;;24.08;64.67;100205.69;4895403;28;97495;-85
2021/07/17 00:33:12;;;;;;;12.68;10.60;;;;;;;24.12;64.26;100206.28;4896147;28;101403;-85
2021/07/17 00:35:38;;;;;;;12.52;9.98;;;;;;;24.15;64.11;100204.16;4880589;28;97043;-84
2021/07/17 00:38:04;;;;;;;16.70;10.05;;;;;;;24.10;64.37;100206.41;4895541;28;97074;-84
2021/07/17 00:40:30;;;;;;;13.18;10.05;;;;;;;24.13;64.27;100198.09;4880012;28;102389;-84
2021/07/17 00:42:56;;;;;;;17.75;10.30;;;;;;;24.05;64.56;100207.81;4895646;28;98368;-84
2021/07/17 00:45:22;;;;;;;15.13;10.10;;;;;;;23.94;64.82;100196.28;4896479;28;96878;-84
2021/07/17 00:47:50;;;;;;;14.77;9.90;;;;;;;23.94;64.87;100198.13;4896342;28;97153;-84
2021/07/17 00:50:16;;;;;;;18.95;11.07;;;;;;;23.82;64.73;100196.53;4880191;28;100152;-84
2021/07/17 00:52:42;;;;;;;18.83;10.15;;;;;;;23.73;65.32;100200.91;4897576;28;98038;-85
2021/07/17 00:55:09;;;;;;;11.45;9.75;;;;;;;23.79;65.15;100208.38;4895197;28;96647;-84
2021/07/17 00:57:36;;;;;;;13.18;9.77;;;;;;;23.78;65.14;100209.38;4880176;28;96943;-84
2021/07/17 01:00:09;;;;;;;15.50;10.02;;;;;;;23.70;65.39;100198.50;4879083;28;101085;-84
2021/07/17 01:02:38;;;;;;;13.70;10.00;;;;;;;23.76;64.94;100197.94;4895649;28;101649;-84
2021/07/17 01:05:05;;;;;;;14.18;10.32;;;;;;;23.66;65.41;100208.63;4879356;28;97097;-84
2021/07/17 01:07:31;;;;;;;16.10;9.75;;;;;;;23.56;65.53;100191.72;4895365;28;96922;-84
2021/07/17 01:09:56;;;;;;;15.57;10.15;;;;;;;23.59;65.58;100193.22;4890626;28;101088;-85
2021/07/17 01:12:22;;;;;;;15.85;11.25;;;;;;;23.61;65.54;100194.78;4895931;28;101055;-85
2021/07/17 01:14:48;;;;;;;14.27;10.73;;;;;;;23.61;65.56;100194.78;4895837;28;96599;-84
2021/07/17 01:17:13;;;;;;;16.95;10.07;;;;;;;23.57;65.57;100190.72;4895209;28;96791;-85
2021/07/17 01:19:39;;;;;;;12.38;10.25;;;;;;;23.49;65.81;100191.41;4894867;28;97738;-85
2021/07/17 01:22:05;;;;;;;13.80;11.18;;;;;;;23.58;65.52;100200.44;4894929;28;97958;-85
2021/07/17 01:24:31;;;;;;;13.23;9.90;;;;;;;23.55;65.47;100194.50;4895883;28;96592;-84
2021/07/17 01:26:56;;;;;;;11.45;10.13;;;;;;;23.44;65.57;100196.31;4879073;28;96910;-84
2021/07/17 01:29:22;;;;;;;11.75;9.95;;;;;;;23.56;65.25;100201.56;4895362;28;101555;-85
2021/07/17 01:31:48;;;;;;;16.10;10.15;;;;;;;23.53;65.49;100208.03;4879201;28;101615;-84
2021/07/17 01:34:13;;;;;;;20.70;11.40;;;;;;;23.50;65.65;100205.63;4894817;28;96751;-85
2021/07/17 01:36:40;;;;;;;14.70;10.40;;;;;;;23.49;65.63;100203.94;4896236;28;96919;-85
2021/07/17 01:39:06;;;;;;;13.27;11.07;;;;;;;23.48;65.56;100199.59;4894794;28;98201;-84
2021/07/17 01:41:31;;;;;;;14.40;10.88;;;;;;;23.43;65.65;100199.16;4894989;28;101433;-84
2021/07/17 01:43:57;;;;;;;15.60;10.57;;;;;;;23.41;65.65;100199.25;4894037;28;96752;-85
2021/07/17 01:46:24;;;;;;;15.95;12.00;;;;;;;23.44;65.75;100192.78;4895733;28;96753;-85
2021/07/17 01:48:52;;;;;;;20.35;12.75;;;;;;;23.45;65.57;100194.50;4894147;28;101146;-84
2021/07/17 01:51:18;;;;;;;18.88;13.27;;;;;;;23.48;65.50;100202.25;4894726;28;100983;-84
2021/07/17 01:53:44;;;;;;;16.33;12.93;;;;;;;23.36;65.73;100195.31;4879419;28;96909;-85
2021/07/17 01:56:09;;;;;;;16.00;12.75;;;;;;;23.30;65.73;100201.22;4894624;28;96900;-85
2021/07/17 01:58:35;;;;;;;20.73;15.25;;;;;;;23.34;65.56;100202.66;4895163;28;97693;-85
2021/07/17 02:01:00;;;;;;;37.65;16.83;;;;;;;23.17;66.16;100198.78;4893863;28;101495;-84
2021/07/17 02:03:26;;;;;;;21.52;15.98;;;;;;;23.11;66.22;100186.78;4895148;28;97067;-85
2021/07/17 02:05:51;;;;;;;37.42;24.88;;;;;;;23.19;65.97;100192.31;4895220;28;96941;-85
2021/07/17 02:08:17;;;;;;;17.85;15.25;;;;;;;23.09;66.40;100193.25;4893537;28;98878;-84
2021/07/17 02:10:42;;;;;;;18.65;13.90;;;;;;;23.01;66.41;100189.44;4894985;28;98584;-85
2021/07/17 02:13:09;;;;;;;19.73;13.43;;;;;;;23.04;66.41;100193.69;4894477;28;96941;-85
2021/07/17 02:15:43;;;;;;;19.20;14.25;;;;;;;23.07;66.22;100197.91;4895339;28;97028;-85
2021/07/17 02:18:10;;;;;;;14.15;12.10;;;;;;;23.07;66.09;100197.91;4895404;28;98124;-85
2021/07/17 02:20:36;;;;;;;19.08;11.40;;;;;;;23.09;65.90;100193.25;4893946;28;101274;-84
2021/07/17 02:23:02;;;;;;;12.95;10.95;;;;;;;22.97;66.04;100193.34;4894669;28;96601;-85
2021/07/17 02:25:27;;;;;;;16.25;11.15;;;;;;;22.99;66.10;100202.13;4895177;28;96883;-85
2021/07/17 02:27:53;;;;;;;14.55;10.38;;;;;;;22.97;66.02;100195.19;4878525;28;101577;-85
2021/07/17 02:30:19;;;;;;;16.73;10.90;;;;;;;22.90;66.28;100205.56;4893787;28;101506;-85
2021/07/17 02:32:45;;;;;;;14.13;9.07;;;;;;;23.00;66.01;100205.63;4894468;28;97079;-85
2021/07/17 02:35:10;;;;;;;16.80;9.70;;;;;;;22.98;66.10;100204.91;4893948;28;96943;-84
2021/07/17 02:37:36;;;;;;;15.68;10.23;;;;;;;22.94;66.06;100196.28;4894577;28;101044;-85
2021/07/17 02:40:04;;;;;;;12.75;9.48;;;;;;;22.89;66.49;100187.78;4893818;28;101492;-84
2021/07/17 02:42:29;;;;;;;14.32;10.40;;;;;;;22.87;66.16;100196.97;4894715;28;96628;-85
2021/07/17 02:44:55;;;;;;;11.13;9.02;;;;;;;22.97;66.15;100201.38;4894820;28;97141;-84
2021/07/17 02:47:21;;;;;;;16.85;9.80;;;;;;;22.90;66.27;100199.38;4893813;28;101933;-84
2021/07/17 02:49:46;;;;;;;15.68;9.77;;;;;;;23.03;65.89;100203.53;4894216;28;98154;-84
2021/07/17 02:52:12;;;;;;;15.70;9.20;;;;;;;22.95;66.15;100200.69;4894105;28;97070;-84
2021/07/17 02:54:37;;;;;;;12.60;10.70;;;;;;;22.83;66.33;100197.25;4894817;28;97077;-84
2021/07/17 02:57:03;;;;;;;13.35;9.20;;;;;;;22.84;66.52;100208.78;4893307;28;98576;-84
2021/07/17 02:59:28;;;;;;;13.02;9.30;;;;;;;22.78;66.79;100210.16;4894764;28;101305;-84
2021/07/17 03:01:54;;;;;;;12.45;9.70;;;;;;;22.86;66.33;100209.47;4898124;28;97209;-84
2021/07/17 03:04:19;;;;;;;11.40;10.20;;;;;;;22.78;66.71;100220.03;4897517;28;97483;-84
2021/07/17 03:06:45;;;;;;;15.45;9.85;;;;;;;22.80;66.75;100223.38;4897351;28;101617;-84
2021/07/17 03:09:10;;;;;;;13.20;10.95;;;;;;;22.69;66.95;100216.31;4880842;28;101642;-85
2021/07/17 03:11:36;;;;;;;11.93;10.15;;;;;;;22.71;67.27;100210.81;4898060;28;97130;-84
2021/07/17 03:14:02;;;;;;;12.05;9.90;;;;;;;22.72;66.92;100216.06;4897612;28;97081;-84
2021/07/17 03:16:30;;;;;;;16.13;9.05;;;;;;;22.76;66.95;100213.94;4900161;28;98555;-84
2021/07/17 03:18:55;;;;;;;13.20;9.82;;;;;;;22.76;66.95;100208.59;4891636;28;101042;-84
2021/07/17 03:21:21;;;;;;;16.65;10.50;;;;;;;22.82;66.79;100210.75;4916041;28;96612;-84
2021/07/17 03:23:46;;;;;;;15.23;11.07;;;;;;;22.66;67.31;100210.34;4932714;28;96935;-84
2021/07/17 03:26:12;;;;;;;14.15;10.45;;;;;;;22.61;67.74;100216.13;4899775;28;101072;-84
2021/07/17 03:28:37;;;;;;;17.27;10.68;;;;;;;22.69;67.39;100215.44;4916533;28;98089;-84
2021/07/17 03:31:03;;;;;;;14.10;10.13;;;;;;;22.81;67.15;100217.06;4900127;28;96771;-84
2021/07/17 03:33:29;;;;;;;14.98;10.90;;;;;;;22.90;66.59;100207.41;4884484;28;96852;-84
2021/07/17 03:35:57;;;;;;;13.73;10.38;;;;;;;22.96;66.95;100209.56;4899986;28;101718;-84
2021/07/17 03:38:23;;;;;;;13.65;10.63;;;;;;;23.03;66.71;100211.56;4900474;28;97453;-84
2021/07/17 03:40:49;;;;;;;18.60;10.82;;;;;;;23.04;66.74;100215.09;4900008;28;97129;-84
2021/07/17 03:43:14;;;;;;;15.25;10.20;;;;;;;23.14;66.54;100215.13;4916014;28;96602;-84
2021/07/17 03:45:40;;;;;;;16.10;11.35;;;;;;;23.15;66.76;100212.31;4899912;28;98575;-85
2021/07/17 03:48:06;;;;;;;16.45;10.38;;;;;;;23.21;66.74;100206.44;4883221;28;101182;-84
2021/07/17 03:50:31;;;;;;;13.15;10.90;;;;;;;23.30;66.18;100210.13;4884406;28;97008;-84
2021/07/17 03:52:57;;;;;;;19.20;11.55;;;;;;;23.20;66.88;100210.06;4916543;28;97031;-84
2021/07/17 03:55:22;;;;;;;14.95;11.68;;;;;;;23.20;66.65;100209.22;4883434;28;100484;-84
2021/07/17 03:57:48;;;;;;;15.30;12.88;;;;;;;23.27;66.56;100208.56;4899855;28;98325;-84
2021/07/17 04:00:14;;;;;;;13.20;11.45;;;;;;;23.41;66.23;100209.13;4899668;28;96958;-84
2021/07/17 04:02:41;;;;;;;13.43;11.20;;;;;;;23.43;66.34;100202.66;4900795;28;96919;-84
2021/07/17 04:05:08;;;;;;;16.42;10.90;;;;;;;23.49;66.47;100207.47;4883367;28;101396;-84
2021/07/17 04:07:34;;;;;;;15.00;10.60;;;;;;;23.59;66.17;100209.31;4883883;28;101376;-84
2021/07/17 04:10:00;;;;;;;18.48;11.35;;;;;;;23.66;65.86;100205.94;4915712;28;96900;-84
2021/07/17 04:12:26;;;;;;;15.45;11.07;;;;;;;23.70;65.88;100207.38;4882855;28;97229;-83
2021/07/17 04:14:51;;;;;;;18.67;12.13;;;;;;;23.59;66.21;100195.91;4883708;28;101270;-84
2021/07/17 04:17:17;;;;;;;15.13;12.27;;;;;;;23.60;66.36;100195.78;4898967;28;97387;-84
2021/07/17 04:19:43;;;;;;;15.88;11.05;;;;;;;23.62;66.05;100191.16;4915549;28;97737;-84
2021/07/17 04:22:08;;;;;;;14.32;10.57;;;;;;;23.65;66.19;100192.69;4883236;28;96916;-84
2021/07/17 04:24:34;;;;;;;15.52;10.85;;;;;;;23.70;66.14;100193.97;4899652;28;100003;-84
2021/07/17 04:26:59;;;;;;;17.58;11.20;;;;;;;23.70;66.44;100193.16;4915645;28;101376;-84
2021/07/17 04:29:25;;;;;;;15.82;11.55;;;;;;;23.52;67.17;100186.75;4914993;28;96635;-84
2021/07/17 04:31:51;;;;;;;16.67;10.88;;;;;;;23.51;67.20;100185.91;4899277;28;96891;-84
2021/07/17 04:34:17;;;;;;;18.90;11.00;;;;;;;23.54;67.17;100188.31;4913945;28;101400;-84
2021/07/17 04:36:42;;;;;;;15.25;10.02;;;;;;;23.53;67.11;100177.72;4883263;28;99195;-84
2021/07/17 04:39:08;;;;;;;17.60;10.73;;;;;;;23.54;67.22;100172.25;4899043;28;96870;-84
2021/07/17 04:41:34;;;;;;;15.02;10.18;;;;;;;23.57;67.36;100177.31;4883590;28;96895;-84
2021/07/17 04:43:59;;;;;;;12.50;10.50;;;;;;;23.55;67.29;100173.09;4899106;28;100790;-84
2021/07/17 04:46:25;;;;;;;13.93;10.02;;;;;;;23.65;66.95;100171.25;4914229;28;99935;-84
2021/07/17 04:48:51;;;;;;;19.77;10.93;;;;;;;23.76;66.78;100172.97;4883629;28;96640;-84
2021/07/17 04:51:16;;;;;;;18.23;10.10;;;;;;;23.83;66.76;100171.44;4883908;28;96923;-85
2021/07/17 04:53:42;;;;;;;16.25;10.30;;;;;;;23.86;66.48;100181.88;4883500;28;100674;-84
2021/07/17 04:56:07;;;;;;;12.55;10.45;;;;;;;23.83;66.84;100180.31;4883036;28;100725;-85
2021/07/17 04:58:33;;;;;;;14.55;9.30;;;;;;;23.91;66.66;100185.84;4882701;28;96623;-84
2021/07/17 05:00:58;;;;;;;17.35;9.93;;;;;;;24.00;66.48;100177.91;4899384;28;97038;-85
2021/07/17 05:03:24;;;;;;;15.75;10.13;;;;;;;24.16;66.24;100180.88;4898296;28;101138;-84
2021/07/17 05:05:50;;;;;;;20.17;10.95;;;;;;;24.39;65.80;100187.59;4899185;28;97860;-84
2021/07/17 05:08:16;;;;;;;17.08;10.35;;;;;;;24.45;65.95;100186.22;4898704;28;96556;-84
2021/07/17 05:10:42;;;;;;;15.18;10.10;;;;;;;24.50;65.43;100185.78;4883198;28;96643;-84
2021/07/17 05:13:14;;;;;;;15.27;9.98;;;;;;;24.61;65.52;100182.94;4899041;28;98224;-84
2021/07/17 05:15:41;;;;;;;13.18;10.00;;;;;;;24.63;65.51;100178.25;4915183;28;97807;-85
2021/07/17 05:18:07;;;;;;;19.17;10.18;;;;;;;24.90;65.04;100173.91;4899254;28;97259;-85
2021/07/17 05:20:32;;;;;;;16.40;9.55;;;;;;;25.11;64.64;100174.53;4896926;28;97453;-84
2021/07/17 05:22:59;;;;;;;17.40;9.30;;;;;;;25.46;63.31;100163.03;4897401;28;97873;-85
2021/07/17 05:25:24;;;;;;;12.88;8.68;;;;;;;25.69;62.60;100173.34;4897892;28;98040;-85
2021/07/17 05:27:50;;;;;;;12.13;8.82;;;;;;;25.92;61.84;100166.53;4882778;28;98193;-84
2021/07/17 05:30:15;;;;;;;10.63;8.18;;;;;;;25.85;62.37;100173.50;4897722;28;97001;-85
2021/07/17 05:32:41;;;;;;;16.98;9.48;;;;;;;25.92;61.93;100181.81;4914733;28;96820;-84
2021/07/17 05:35:07;;;;;;;18.80;9.10;;;;;;;25.80;62.32;100174.94;4898774;28;101171;-84
2021/07/17 05:37:32;;;;;;;13.32;9.50;;;;;;;25.61;62.76;100175.94;4897878;28;96589;-84
2021/07/17 05:39:58;;;;;;;10.73;8.65;;;;;;;25.45;63.01;100173.91;4915706;28;96827;-84
2021/07/17 05:42:24;;;;;;;13.73;8.57;;;;;;;25.43;63.35;100187.50;4898246;28;101565;-85
2021/07/17 05:44:50;;;;;;;11.82;8.60;;;;;;;25.28;63.54;100186.34;4898177;28;101521;-84
2021/07/17 05:47:15;;;;;;;14.95;9.02;;;;;;;25.05;64.58;100189.41;4897836;28;96668;-84
2021/07/17 05:49:42;;;;;;;14.80;9.52;;;;;;;25.07;64.64;100194.59;4915359;28;96679;-85
2021/07/17 05:52:07;;;;;;;16.52;11.40;;;;;;;24.94;64.81;100189.56;4913884;28;101598;-85
2021/07/17 05:54:33;;;;;;;12.57;8.88;;;;;;;24.94;64.93;100196.78;4888603;28;101320;-85
2021/07/17 05:56:59;;;;;;;13.38;9.57;;;;;;;24.88;64.76;100197.38;4876588;28;96771;-85
2021/07/17 05:59:24;;;;;;;10.98;8.52;;;;;;;24.88;64.77;100192.03;4891069;28;97071;-84
2021/07/17 06:01:50;;;;;;;13.82;9.02;;;;;;;24.80;65.12;100198.13;4894746;28;101166;-85
2021/07/17 06:04:15;;;;;;;11.40;9.05;;;;;;;24.70;65.59;100203.53;4909325;28;101577;-83
2021/07/17 06:06:41;;;;;;;14.70;10.48;;;;;;;24.80;65.03;100204.31;4905395;28;97126;-84
2021/07/17 06:09:06;;;;;;;16.55;9.70;;;;;;;24.86;65.10;100216.31;4921142;28;96964;-84
2021/07/17 06:11:32;;;;;;;14.50;9.18;;;;;;;24.98;64.47;100216.97;4893136;28;100245;-84
2021/07/17 06:13:57;;;;;;;14.90;9.07;;;;;;;24.87;65.14;100217.16;4866688;28;101449;-84
2021/07/17 06:16:23;;;;;;;12.70;9.68;;;;;;;24.81;65.29;100207.84;4887094;28;96987;-84
2021/07/17 06:18:48;;;;;;;13.05;8.55;;;;;;;24.73;65.53;100207.75;4902070;28;97000;-84
2021/07/17 06:21:14;;;;;;;16.23;8.30;;;;;;;24.75;65.54;100203.91;4867320;28;101414;-85
2021/07/17 06:23:39;;;;;;;14.85;9.18;;;;;;;24.96;64.78;100205.53;4920125;28;101453;-85
2021/07/17 06:26:05;;;;;;;11.82;8.30;;;;;;;25.01;64.74;100209.47;4912352;28;96993;-84
2021/07/17 06:28:31;;;;;;;16.33;9.48;;;;;;;25.04;64.52;100213.69;4924167;28;97560;-84
2021/07/17 06:30:57;;;;;;;11.05;9.18;;;;;;;25.00;64.68;100221.19;4910501;28;101341;-84
2021/07/17 06:33:23;;;;;;;12.32;8.63;;;;;;;25.04;64.79;100213.69;4912927;28;100825;-85
2021/07/17 06:35:49;;;;;;;10.02;8.95;;;;;;;25.35;64.02;100225.03;4918654;28;96947;-84
2021/07/17 06:38:14;;;;;;;17.35;8.48;;;;;;;25.57;63.71;100220.22;4903960;28;96988;-84
2021/07/17 06:40:40;;;;;;;10.40;8.60;;;;;;;25.44;63.73;100229.50;4913342;28;101836;-84
2021/07/17 06:43:05;;;;;;;9.60;8.70;;;;;;;25.51;63.76;100232.41;4930133;28;97984;-85
2021/07/17 06:45:31;;;;;;;9.27;8.15;;;;;;;25.49;64.06;100229.06;4901771;28;96993;-84
2021/07/17 06:47:57;;;;;;;12.52;8.55;;;;;;;25.52;63.46;100236.81;4901317;28;96890;-85
2021/07/17 06:50:22;;;;;;;11.98;8.85;;;;;;;25.51;63.20;100235.09;4894894;28;101800;-84
2021/07/17 06:52:48;;;;;;;10.00;7.90;;;;;;;25.61;63.34;100238.59;4925251;28;101349;-84
2021/07/17 06:55:14;;;;;;;11.60;8.80;;;;;;;25.63;62.95;100235.78;4911826;28;96832;-85
2021/07/17 06:57:41;;;;;;;13.32;7.93;;;;;;;25.58;63.24;100238.06;4905311;28;96975;-84
2021/07/17 07:00:12;;;;;;;11.85;8.60;;;;;;;25.62;63.05;100244.81;4920533;28;98207;-84
2021/07/17 07:02:38;;;;;;;13.48;9.30;;;;;;;25.72;62.96;100237.53;4908386;28;101143;-84
2021/07/17 07:05:05;;;;;;;14.05;9.15;;;;;;;25.86;62.77;100242.44;4907193;28;96889;-84
2021/07/17 07:07:30;;;;;;;13.02;9.77;;;;;;;25.87;62.82;100237.88;4901952;28;97065;-84
2021/07/17 07:09:56;;;;;;;13.57;9.45;;;;;;;25.88;62.71;100236.88;4901177;28;98062;-84
2021/07/17 07:12:21;;;;;;;9.80;8.80;;;;;;;25.89;62.80;100246.63;4914136;28;101461;-84
2021/07/17 07:14:47;;;;;;;10.55;8.57;;;;;;;26.10;62.20;100243.66;4887917;28;96752;-84
2021/07/17 07:17:12;;;;;;;12.02;9.40;;;;;;;26.11;61.75;100239.94;4904154;28;96899;-84
2021/07/17 07:19:38;;;;;;;10.48;9.18;;;;;;;26.31;61.58;100235.25;4886520;28;100950;-86
2021/07/17 07:22:03;;;;;;;14.20;8.57;;;;;;;26.92;60.42;100242.44;4888313;28;100982;-86
2021/07/17 07:24:29;;;;;;;16.58;9.90;;;;;;;26.91;60.39;100238.06;4887638;28;96969;-84
2021/07/17 07:26:56;;;;;;;9.70;7.90;;;;;;;26.92;60.09;100236.19;4887361;28;97186;-82
2021/07/17 07:29:23;;;;;;;12.68;8.95;;;;;;;27.70;57.26;100236.03;4902569;28;100838;-81
2021/07/17 07:31:49;;;;;;;11.32;7.57;;;;;;;28.53;55.05;100233.25;4903369;28;97375;-81
2021/07/17 07:34:15;;;;;;;9.75;8.05;;;;;;;27.96;56.33;100234.06;4903874;28;96652;-81
2021/07/17 07:36:40;;;;;;;12.05;8.65;;;;;;;27.54;57.54;100240.34;4903108;28;96912;-82
2021/07/17 07:39:06;;;;;;;11.23;8.32;;;;;;;27.52;57.28;100230.78;4903473;28;101509;-82
2021/07/17 07:41:33;;;;;;;9.60;8.18;;;;;;;27.43;57.70;100237.13;4903347;28;101228;-82
2021/07/17 07:43:59;;;;;;;10.98;8.63;;;;;;;27.56;56.79;100225.88;4919922;28;96706;-82
2021/07/17 07:46:25;;;;;;;12.10;7.88;;;;;;;28.21;56.07;100225.97;4900738;28;96883;-82
2021/07/17 07:48:50;;;;;;;9.73;7.40;;;;;;;27.96;55.79;100222.44;4899765;28;97882;-80
2021/07/17 07:51:16;;;;;;;9.25;6.97;;;;;;;27.87;55.90;100228.84;4915894;28;101095;-81
2021/07/17 07:53:41;;;;;;;12.23;7.28;;;;;;;29.09;53.44;100230.63;4900124;28;96631;-81
2021/07/17 07:56:07;;;;;;;10.32;8.13;;;;;;;30.04;50.85;100221.50;4916381;28;96897;-82
2021/07/17 07:58:32;;;;;;;10.52;6.88;;;;;;;30.58;49.58;100221.38;4899407;28;101222;-82
2021/07/17 08:00:58;;;;;;;10.65;7.38;;;;;;;29.98;51.04;100220.34;4917401;28;98724;-81
2021/07/17 08:03:24;;;;;;;12.50;7.40;;;;;;;29.89;51.57;100222.28;4899838;28;96568;-82
2021/07/17 08:05:49;;;;;;;8.32;6.45;;;;;;;30.15;51.16;100227.31;4901232;28;96903;-82
2021/07/17 08:08:15;;;;;;;10.98;7.78;;;;;;;30.24;49.88;100222.72;4916152;28;98046;-81
2021/07/17 08:10:41;;;;;;;11.63;6.93;;;;;;;32.25;47.40;100217.81;4915492;28;100700;-81
2021/07/17 08:13:06;;;;;;;10.82;7.15;;;;;;;33.86;43.66;100216.84;4915405;28;96719;-81
2021/07/17 08:15:32;;;;;;;9.05;6.32;;;;;;;34.36;41.84;100212.72;4897551;28;97568;-82
2021/07/17 08:17:57;;;;;;;7.47;6.28;;;;;;;33.40;43.12;100215.66;4894923;28;101066;-86
2021/07/17 08:20:24;;;;;;;8.55;5.82;;;;;;;31.65;45.68;100221.81;4861927;28;102147;-84
2021/07/17 08:22:50;;;;;;;7.55;5.43;;;;;;;31.62;47.17;100221.34;4913820;28;96925;-82
2021/07/17 08:25:16;;;;;;;8.63;5.32;;;;;;;33.10;43.57;100217.81;4904979;28;97075;-82
2021/07/17 08:27:42;;;;;;;10.20;5.43;;;;;;;33.59;42.64;100206.72;4895981;28;101580;-85
2021/07/17 08:30:11;;;;;;;10.80;5.25;;;;;;;34.52;40.48;100211.44;4898535;28;101690;-82
2021/07/17 08:32:40;;;;;;;8.82;5.03;;;;;;;34.72;39.84;100207.88;4898159;28;96981;-82
2021/07/17 08:35:06;;;;;;;8.30;5.30;;;;;;;34.87;39.65;100208.47;4914847;28;97540;-82
2021/07/17 08:37:35;;;;;;;6.18;5.28;;;;;;;34.76;40.41;100203.66;4913521;28;97746;-83
2021/07/17 08:40:04;;;;;;;5.90;5.10;;;;;;;35.14;39.11;100201.91;4899430;28;101544;-82
2021/07/17 08:42:31;;;;;;;6.27;4.33;;;;;;;34.82;39.51;100202.81;4899662;28;96767;-82
2021/07/17 08:45:01;;;;;;;8.98;5.45;;;;;;;34.65;40.16;100205.19;4883616;28;96888;-81
2021/07/17 08:47:30;;;;;;;9.75;5.25;;;;;;;35.07;40.11;100208.44;4898761;28;99513;-82
2021/07/17 08:49:57;;;;;;;8.57;4.95;;;;;;;35.81;38.38;100210.63;4883978;28;101282;-82
2021/07/17 08:52:24;;;;;;;6.63;4.72;;;;;;;36.58;36.67;100198.69;4899837;28;96560;-85
2021/07/17 08:54:49;;;;;;;5.80;4.35;;;;;;;37.41;36.38;100200.03;4899520;28;96872;-82
2021/07/17 08:57:15;;;;;;;7.30;4.82;;;;;;;37.66;35.31;100206.22;4899163;28;98230;-82
2021/07/17 08:59:40;;;;;;;7.30;4.80;;;;;;;37.63;35.74;100197.66;4914773;28;98907;-82
2021/07/17 09:02:07;;;;;;;8.45;4.53;;;;;;;37.91;34.75;100184.16;4915165;28;96650;-82
2021/07/17 09:04:33;;;;;;;6.18;4.18;;;;;;;37.62;35.57;100187.78;4896528;28;96950;-82
2021/07/17 09:06:58;;;;;;;5.10;4.15;;;;;;;37.21;35.78;100189.34;4894492;28;97957;-82
2021/07/17 09:09:33;;;;;;;7.22;5.00;;;;;;;37.14;35.72;100195.72;4887304;28;97540;-86
2021/07/17 09:11:59;;;;;;;6.22;4.63;;;;;;;35.17;38.94;100195.19;4902388;28;96967;-81
2021/07/17 09:14:43;;;;;;;8.25;4.82;;;;;;;33.34;41.98;100197.44;4927254;28;97228;-84
2021/07/17 09:17:09;;;;;;;7.10;4.45;;;;;;;34.46;40.79;100196.78;4912592;28;101303;-82
2021/07/17 09:19:34;;;;;;;8.35;6.10;;;;;;;35.45;38.77;100180.34;4912487;28;98100;-82
2021/07/17 09:22:01;;;;;;;10.57;5.03;;;;;;;35.03;38.84;100191.66;4913217;28;96837;-82
2021/07/17 09:24:27;;;;;;;12.00;4.65;;;;;;;34.58;39.49;100185.25;4912732;28;96959;-86
2021/07/17 09:27:02;;;;;;;11.00;5.30;;;;;;;34.51;40.03;100190.69;4896218;28;98040;-83
2021/07/17 09:29:38;;;;;;;8.05;5.10;;;;;;;35.24;39.56;100186.97;4881438;28;101187;-86
2021/07/17 09:32:04;;;;;;;8.90;5.00;;;;;;;35.70;38.81;100185.91;4912912;28;97327;-82
2021/07/17 09:34:31;;;;;;;10.40;5.47;;;;;;;35.12;38.91;100186.81;4912728;28;97078;-83
2021/07/17 09:37:11;;;;;;;8.88;5.20;;;;;;;34.41;40.90;100187.56;4897018;28;99148;-82
2021/07/17 09:39:40;;;;;;;10.27;5.00;;;;;;;33.40;42.42;100191.19;4895954;28;101526;-82
2021/07/17 09:42:07;;;;;;;11.05;5.40;;;;;;;33.95;41.32;100180.22;4898337;28;97269;-81
2021/07/17 09:44:34;;;;;;;10.18;5.03;;;;;;;34.19;40.90;100179.63;4898251;28;97001;-82
2021/07/17 09:47:03;;;;;;;10.43;5.03;;;;;;;34.32;41.13;100176.03;4882412;28;101825;-82
2021/07/17 09:49:28;;;;;;;12.98;5.55;;;;;;;34.58;39.85;100175.19;4882406;28;101999;-85
2021/07/17 09:52:06;;;;;;;8.48;5.22;;;;;;;34.55;39.76;100172.91;4882233;28;96630;-82
2021/07/17 09:54:32;;;;;;;11.10;4.88;;;;;;;34.12;40.33;100164.31;4913990;28;96898;-84
2021/07/17 09:57:01;;;;;;;7.13;4.65;;;;;;;34.52;40.66;100175.19;4882325;28;101831;-82
2021/07/17 09:59:27;;;;;;;10.82;5.93;;;;;;;34.50;40.56;100169.94;4898059;28;101145;-84
2021/07/17 10:01:52;;;;;;;10.68;4.97;;;;;;;33.81;41.72;100168.47;4898227;28;96562;-82
2021/07/17 10:04:18;;;;;;;10.60;5.28;;;;;;;33.16;42.57;100169.94;4898656;28;96921;-81
2021/07/17 10:06:44;;;;;;;10.38;5.10;;;;;;;32.62;43.99;100175.09;4897653;28;101128;-80
2021/07/17 10:09:13;;;;;;;5.93;4.95;;;;;;;32.95;43.43;100168.16;4913907;28;100864;-81
2021/07/17 10:11:40;;;;;;;8.70;5.38;;;;;;;33.44;42.99;100157.06;4914323;28;97118;-82
2021/07/17 10:14:23;;;;;;;5.75;4.50;;;;;;;32.85;43.31;100163.09;4898286;28;97128;-83
2021/07/17 10:16:53;;;;;;;7.47;4.82;;;;;;;33.03;42.54;100168.03;4896730;28;100986;-84
2021/07/17 10:19:19;;;;;;;6.32;4.50;;;;;;;33.22;41.82;100159.13;4881995;28;101249;-84
2021/07/17 10:21:45;;;;;;;7.63;5.25;;;;;;;33.36;43.07;100160.81;4898435;28;97005;-88
2021/07/17 10:24:12;;;;;;;10.40;4.90;;;;;;;33.50;43.42;100155.41;4899250;28;97014;-85
2021/07/17 10:26:39;;;;;;;7.78;5.00;;;;;;;33.51;42.72;100165.25;4913257;28;101893;-84
2021/07/17 10:29:06;;;;;;;10.82;5.10;;;;;;;33.00;42.85;100155.66;4897265;28;101014;-84
2021/07/17 10:31:33;;;;;;;8.32;5.35;;;;;;;33.09;43.01;100151.72;4880795;28;96715;-85
2021/07/17 10:33:59;;;;;;;9.65;4.93;;;;;;;33.14;44.16;100151.13;4898409;28;96969;-83
2021/07/17 10:36:25;;;;;;;10.38;5.15;;;;;;;32.99;43.74;100154.00;4913373;28;98629;-83
2021/07/17 10:38:56;;;;;;;6.85;4.95;;;;;;;32.94;44.23;100155.63;4912680;28;101390;-83
2021/07/17 10:41:24;;;;;;;6.32;5.28;;;;;;;33.05;43.99;100164.06;4913207;28;96986;-83
2021/07/17 10:43:51;;;;;;;6.35;4.70;;;;;;;32.90;43.43;100155.16;4912840;28;97518;-84
2021/07/17 10:46:27;;;;;;;9.80;5.10;;;;;;;32.61;43.36;100153.53;4913581;28;97916;-83
2021/07/17 10:48:53;;;;;;;7.18;4.57;;;;;;;32.30;44.06;100149.38;4912578;28;101494;-82
2021/07/17 10:51:29;;;;;;;9.65;5.50;;;;;;;32.24;44.12;100155.59;4913881;28;96882;-83
2021/07/17 10:53:58;;;;;;;8.98;4.50;;;;;;;32.01;45.04;100148.50;4912907;28;96801;-82
2021/07/17 10:56:26;;;;;;;7.03;4.75;;;;;;;31.97;44.72;100158.09;4897498;28;101386;-84
2021/07/17 10:58:52;;;;;;;8.07;5.25;;;;;;;31.79;45.21;100158.53;4914350;28;97404;-83
2021/07/17 11:01:19;;;;;;;8.73;5.28;;;;;;;31.63;45.61;100156.06;4913552;28;96595;-83
2021/07/17 11:03:44;;;;;;;8.30;4.90;;;;;;;31.59;45.84;100154.75;4912669;28;96979;-83
2021/07/17 11:06:31;;;;;;;10.68;5.00;;;;;;;31.38;45.74;100150.16;4896638;28;98471;-82
2021/07/17 11:09:00;;;;;;;8.38;5.03;;;;;;;31.21;46.04;100143.25;4896117;28;101456;-83
2021/07/17 11:11:36;;;;;;;10.43;5.65;;;;;;;31.24;46.20;100146.44;4912988;28;96872;-82